Time;durP1;ratioP1;P1;durP2;ratioP2;P2;SDS_P1;SDS_P2;PMS_P1;PMS_P2;Temp;Humidity;BMP_temperature;BMP_pressure;BME280_temperature;BME280_humidity;BME280_pressure;Samples;Min_cycle;Max_cycle;Signal;HPM_P1;HPM_P2
2023/04/28 00:01:56;;;;;;;40.50;37.78;;;5.60;99.90;;;;;;5146663;28;20058;-73
2023/04/28 00:04:27;;;;;;;39.28;36.47;;;5.90;99.90;;;;;;5146672;28;20035;-72
2023/04/28 00:06:58;;;;;;;41.80;39.10;;;6.10;99.90;;;;;;5146645;28;20062;-72
2023/04/28 00:09:29;;;;;;;40.25;37.65;;;5.90;99.90;;;;;;5145419;28;20124;-73
2023/04/28 00:12:01;;;;;;;39.25;36.72;;;6.00;99.90;;;;;;5146527;28;20544;-72
2023/04/28 00:14:32;;;;;;;37.75;35.30;;;5.90;99.90;;;;;;5146255;28;20085;-72
2023/04/28 00:17:03;;;;;;;39.20;36.42;;;5.70;99.90;;;;;;5146401;28;20483;-73
2023/04/28 00:19:34;;;;;;;51.92;47.20;;;5.70;99.90;;;;;;5146425;28;20042;-72
2023/04/28 00:22:05;;;;;;;38.90;35.88;;;5.70;99.90;;;;;;5146323;28;20061;-72
2023/04/28 00:24:36;;;;;;;38.03;35.42;;;5.80;99.90;;;;;;5146179;28;20169;-72
2023/04/28 00:27:07;;;;;;;39.22;36.63;;;5.80;99.90;;;;;;5146217;28;20106;-73
2023/04/28 00:29:38;;;;;;;38.17;35.55;;;5.90;99.90;;;;;;5146279;28;20023;-72
2023/04/28 00:32:09;;;;;;;38.55;35.85;;;5.50;99.90;;;;;;5146146;28;20018;-73
2023/04/28 00:34:40;;;;;;;39.30;36.47;;;5.70;99.90;;;;;;5145808;28;20090;-71
2023/04/28 00:37:11;;;;;;;41.95;38.85;;;5.80;99.90;;;;;;5145840;28;20475;-72
2023/04/28 00:39:45;;;;;;;37.50;34.88;;;5.70;99.90;;;;;;5145620;28;20051;-72
2023/04/28 00:42:16;;;;;;;36.88;34.15;;;5.80;99.90;;;;;;5145903;28;20506;-73
2023/04/28 00:44:47;;;;;;;34.85;32.50;;;5.70;99.90;;;;;;5145733;28;20031;-71
2023/04/28 00:47:18;;;;;;;37.58;35.00;;;5.60;99.90;;;;;;5145709;28;20039;-73
2023/04/28 00:49:49;;;;;;;38.67;35.88;;;5.80;99.90;;;;;;5145682;28;20174;-73
2023/04/28 00:52:20;;;;;;;38.80;35.90;;;5.80;99.90;;;;;;5144481;28;20033;-72
2023/04/28 00:54:51;;;;;;;38.80;36.20;;;5.90;99.90;;;;;;5144426;28;20513;-72
2023/04/28 00:57:22;;;;;;;39.13;36.20;;;5.80;99.90;;;;;;5145731;28;20023;-73
2023/04/28 00:59:53;;;;;;;38.42;35.83;;;5.80;99.90;;;;;;5145807;28;20092;-72
2023/04/28 01:02:25;;;;;;;40.15;37.35;;;5.60;99.90;;;;;;5145856;28;20113;-73
2023/04/28 01:04:58;;;;;;;37.92;35.35;;;5.60;99.90;;;;;;5145498;28;20023;-73
2023/04/28 01:07:29;;;;;;;38.42;36.00;;;5.90;99.90;;;;;;5145641;28;20030;-72
2023/04/28 01:09:59;;;;;;;39.65;36.72;;;5.90;99.90;;;;;;5145301;28;20030;-72
2023/04/28 01:12:30;;;;;;;40.15;37.05;;;5.90;99.90;;;;;;5145394;28;20106;-72
2023/04/28 01:15:02;;;;;;;41.80;39.00;;;5.80;99.90;;;;;;5145565;28;20581;-72
2023/04/28 01:17:33;;;;;;;41.83;39.22;;;5.60;99.90;;;;;;5145371;28;20070;-72
2023/04/28 01:20:04;;;;;;;40.97;38.10;;;6.10;99.90;;;;;;5145109;28;20058;-73
2023/04/28 01:22:35;;;;;;;43.75;40.33;;;6.00;99.90;;;;;;5145049;28;20146;-72
2023/04/28 01:25:06;;;;;;;40.22;37.40;;;5.90;99.90;;;;;;5145049;28;20101;-72
2023/04/28 01:27:37;;;;;;;42.20;39.28;;;5.90;99.90;;;;;;5145111;28;20049;-73
2023/04/28 01:30:08;;;;;;;41.35;38.28;;;5.80;99.90;;;;;;5145143;28;20027;-72
2023/04/28 01:32:39;;;;;;;41.92;38.60;;;5.60;99.90;;;;;;5145040;28;20031;-72
2023/04/28 01:35:10;;;;;;;40.25;37.00;;;5.60;99.90;;;;;;5144909;28;20502;-72
2023/04/28 01:37:41;;;;;;;41.10;38.10;;;5.50;99.90;;;;;;5156021;28;20035;-73
2023/04/28 01:40:12;;;;;;;40.42;37.45;;;5.80;99.90;;;;;;5144623;28;20050;-71
2023/04/28 01:42:43;;;;;;;40.58;37.38;;;5.80;99.90;;;;;;5144994;28;20038;-73
2023/04/28 01:45:14;;;;;;;41.50;38.30;;;5.80;99.90;;;;;;5145002;28;20030;-73
2023/04/28 01:47:45;;;;;;;41.30;38.40;;;5.30;99.90;;;;;;5145092;28;20054;-73
2023/04/28 01:50:16;;;;;;;42.25;38.95;;;5.40;99.90;;;;;;5144958;28;20629;-72
2023/04/28 01:52:47;;;;;;;43.83;40.50;;;5.00;99.90;;;;;;5144959;28;20038;-73
2023/04/28 01:55:17;;;;;;;41.67;38.67;;;5.20;99.90;;;;;;5144632;28;20039;-73
2023/04/28 01:57:49;;;;;;;46.30;42.88;;;5.10;99.90;;;;;;5144835;28;20023;-72
2023/04/28 02:00:20;;;;;;;45.20;41.35;;;5.20;99.90;;;;;;5144910;28;20574;-73
2023/04/28 02:02:50;;;;;;;46.17;42.47;;;5.00;99.90;;;;;;5145075;28;20027;-72
2023/04/28 02:05:21;;;;;;;41.88;38.58;;;5.00;99.90;;;;;;5144798;28;20030;-73
2023/04/28 02:07:52;;;;;;;43.05;39.65;;;5.00;99.90;;;;;;5144789;28;20110;-71
2023/04/28 02:10:23;;;;;;;42.55;39.33;;;4.90;99.90;;;;;;5144809;28;20040;-72
2023/04/28 02:12:54;;;;;;;46.13;42.35;;;5.10;99.90;;;;;;5144880;28;20094;-72
2023/04/28 02:15:25;;;;;;;43.75;40.33;;;4.80;99.90;;;;;;5144995;28;20034;-72
2023/04/28 02:17:56;;;;;;;42.25;39.03;;;4.80;99.90;;;;;;5144824;28;20027;-72
2023/04/28 02:20:27;;;;;;;44.00;40.65;;;4.80;99.90;;;;;;5144645;28;20030;-72
2023/04/28 02:22:57;;;;;;;45.42;41.70;;;4.70;99.90;;;;;;5144610;28;20468;-73
2023/04/28 02:25:28;;;;;;;42.38;39.10;;;4.70;99.90;;;;;;5144662;28;20079;-73
2023/04/28 02:27:59;;;;;;;44.13;40.42;;;4.80;99.90;;;;;;5144634;28;20076;-72
2023/04/28 02:30:30;;;;;;;41.08;38.00;;;4.60;99.90;;;;;;5144461;28;20027;-72
2023/04/28 02:33:04;;;;;;;40.42;36.80;;;4.60;99.90;;;;;;5145263;28;20081;-71
2023/04/28 02:35:38;;;;;;;41.10;37.90;;;4.60;99.90;;;;;;5148201;28;20482;-71
2023/04/28 02:38:09;;;;;;;39.17;35.85;;;4.60;99.90;;;;;;5148266;28;20026;-73
2023/04/28 02:40:40;;;;;;;38.33;35.03;;;4.50;99.90;;;;;;5147971;28;20113;-71
2023/04/28 02:43:11;;;;;;;42.72;39.20;;;4.70;99.90;;;;;;5148331;28;20031;-72
2023/04/28 02:45:42;;;;;;;56.20;51.38;;;5.00;99.90;;;;;;5148149;28;20011;-72
2023/04/28 02:48:12;;;;;;;67.10;52.95;;;4.90;99.90;;;;;;5147998;28;20037;-72
2023/04/28 02:50:45;;;;;;;202.10;100.93;;;4.80;99.90;;;;;;5148016;28;20031;-73
2023/04/28 02:53:16;;;;;;;46.30;42.22;;;4.70;99.90;;;;;;5147852;28;20050;-72
2023/04/28 02:55:47;;;;;;;47.70;43.20;;;4.90;99.90;;;;;;5148032;28;20470;-73
2023/04/28 02:58:18;;;;;;;67.60;60.70;;;4.60;99.90;;;;;;5147863;28;20178;-73
2023/04/28 03:00:49;;;;;;;40.00;37.25;;;4.30;99.90;;;;;;5147962;28;20489;-72
2023/04/28 03:03:20;;;;;;;37.35;34.53;;;4.40;99.90;;;;;;5147994;28;20027;-73
2023/04/28 03:05:50;;;;;;;48.83;44.08;;;4.30;99.90;;;;;;5147349;28;20082;-72
2023/04/28 03:08:21;;;;;;;58.90;52.78;;;4.00;99.90;;;;;;5146233;28;20066;-72
2023/04/28 03:10:52;;;;;;;55.38;49.47;;;4.10;99.90;;;;;;5153766;28;20041;-72
2023/04/28 03:13:24;;;;;;;35.15;32.00;;;3.80;99.90;;;;;;5167806;28;20034;-72
2023/04/28 03:15:55;;;;;;;28.92;26.17;;;3.90;99.90;;;;;;5167752;28;20038;-72
2023/04/28 03:18:26;;;;;;;30.45;27.70;;;3.90;99.90;;;;;;5167731;28;20027;-72
2023/04/28 03:20:56;;;;;;;30.40;27.75;;;4.00;99.90;;;;;;5167735;28;20105;-72
2023/04/28 03:23:27;;;;;;;47.60;43.00;;;4.00;99.90;;;;;;5167620;28;20889;-72
2023/04/28 03:25:58;;;;;;;42.90;39.10;;;3.60;99.90;;;;;;5167851;28;20034;-72
2023/04/28 03:28:29;;;;;;;32.88;29.77;;;3.90;99.90;;;;;;5167727;28;20026;-72
2023/04/28 03:31:01;;;;;;;30.65;28.35;;;3.90;99.90;;;;;;5167629;28;20467;-72
2023/04/28 03:33:32;;;;;;;39.95;36.05;;;3.90;99.90;;;;;;5167379;28;20133;-71
2023/04/28 03:36:03;;;;;;;36.65;33.88;;;3.70;99.90;;;;;;5167334;28;20104;-73
2023/04/28 03:38:34;;;;;;;34.83;32.05;;;3.80;99.90;;;;;;5146706;28;20538;-72
2023/04/28 03:41:05;;;;;;;35.47;32.85;;;4.00;99.90;;;;;;5147092;28;20058;-72
2023/04/28 03:43:36;;;;;;;41.20;37.58;;;4.00;99.90;;;;;;5146967;28;20018;-72
2023/04/28 03:46:07;;;;;;;41.92;38.28;;;4.00;99.90;;;;;;5147012;28;20061;-72
2023/04/28 03:48:37;;;;;;;39.67;36.28;;;4.00;99.90;;;;;;5147117;28;20054;-72
2023/04/28 03:51:08;;;;;;;36.00;33.10;;;4.00;99.90;;;;;;5147074;28;20110;-72
2023/04/28 03:53:39;;;;;;;35.97;33.22;;;4.20;99.90;;;;;;5146658;28;20027;-71
2023/04/28 03:56:10;;;;;;;41.53;38.05;;;4.20;99.90;;;;;;5146843;28;20488;-71
2023/04/28 03:58:41;;;;;;;34.38;31.75;;;4.50;99.90;;;;;;5146829;28;20022;-71
2023/04/28 04:01:12;;;;;;;33.25;30.77;;;4.40;99.90;;;;;;5146705;28;20034;-71
2023/04/28 04:03:43;;;;;;;38.30;35.33;;;4.40;99.90;;;;;;5146793;28;20030;-72
2023/04/28 04:06:14;;;;;;;34.72;32.13;;;4.60;99.90;;;;;;5146722;28;20027;-72
2023/04/28 04:08:45;;;;;;;32.22;29.92;;;4.50;99.90;;;;;;5146517;28;20505;-71
2023/04/28 04:11:16;;;;;;;31.25;28.75;;;4.80;99.90;;;;;;5146628;28;20034;-72
2023/04/28 04:13:47;;;;;;;32.95;30.05;;;4.80;99.90;;;;;;5146447;28;20341;-71
2023/04/28 04:16:18;;;;;;;31.67;29.55;;;4.90;99.90;;;;;;5146490;28;20041;-72
2023/04/28 04:18:49;;;;;;;30.80;28.35;;;4.80;99.90;;;;;;5146364;28;20022;-71
2023/04/28 04:21:20;;;;;;;30.85;28.63;;;4.90;99.90;;;;;;5146351;28;20027;-72
2023/04/28 04:23:51;;;;;;;32.35;30.15;;;5.30;99.90;;;;;;5146190;28;20027;-72
2023/04/28 04:26:22;;;;;;;33.60;31.02;;;5.20;99.90;;;;;;5146357;28;20041;-71
2023/04/28 04:28:53;;;;;;;33.15;30.70;;;5.20;99.90;;;;;;5146192;28;20386;-72
2023/04/28 04:31:24;;;;;;;37.40;34.65;;;5.60;99.90;;;;;;5146042;28;20418;-71
2023/04/28 04:33:55;;;;;;;38.00;35.30;;;5.70;99.90;;;;;;5145945;28;20051;-72
2023/04/28 04:36:26;;;;;;;39.28;36.60;;;6.00;99.90;;;;;;5145929;28;20502;-73
2023/04/28 04:38:56;;;;;;;39.95;37.35;;;6.30;99.90;;;;;;5145883;28;20027;-72
2023/04/28 04:41:27;;;;;;;40.63;38.10;;;6.50;99.90;;;;;;5145782;28;20066;-72
2023/04/28 04:43:58;;;;;;;42.78;39.88;;;6.70;99.90;;;;;;5145980;28;20382;-72
2023/04/28 04:46:29;;;;;;;42.70;39.80;;;6.80;99.90;;;;;;5145971;28;20094;-73
2023/04/28 04:49:00;;;;;;;37.85;35.42;;;6.70;99.90;;;;;;5146085;28;20031;-73
2023/04/28 04:51:31;;;;;;;36.50;34.10;;;7.00;99.90;;;;;;5153629;28;20062;-72
2023/04/28 04:54:02;;;;;;;48.15;44.47;;;7.20;99.90;;;;;;5165913;28;20029;-72
2023/04/28 04:56:33;;;;;;;50.03;46.33;;;7.10;99.90;;;;;;5165252;28;20034;-73
2023/04/28 04:59:04;;;;;;;37.13;34.60;;;7.30;99.90;;;;;;5165895;28;20102;-73
2023/04/28 05:01:35;;;;;;;40.30;36.85;;;7.70;99.90;;;;;;5165401;28;20041;-73
2023/04/28 05:04:06;;;;;;;38.25;35.40;;;8.10;99.90;;;;;;5152814;28;20018;-73
2023/04/28 05:06:37;;;;;;;39.95;36.92;;;8.40;99.90;;;;;;5165569;28;20034;-73
2023/04/28 05:09:08;;;;;;;43.80;40.58;;;9.00;99.90;;;;;;5165417;28;20042;-73
2023/04/28 05:11:39;;;;;;;42.58;39.60;;;9.40;99.90;;;;;;5119205;28;20042;-73
2023/04/28 05:14:10;;;;;;;42.83;39.80;;;9.60;99.90;;;;;;5157202;28;20062;-73
2023/04/28 05:16:42;;;;;;;37.72;34.92;;;10.00;99.90;;;;;;5143254;28;20085;-74
2023/04/28 05:19:12;;;;;;;33.90;31.55;;;10.00;99.90;;;;;;5143380;28;20893;-72
2023/04/28 05:21:43;;;;;;;30.88;28.48;;;10.10;99.90;;;;;;5144845;28;20147;-73
2023/04/28 05:24:14;;;;;;;26.48;24.35;;;10.10;99.90;;;;;;5144874;28;20038;-72
2023/04/28 05:26:45;;;;;;;29.60;27.58;;;10.00;99.90;;;;;;5144600;28;20375;-72
2023/04/28 05:29:16;;;;;;;29.02;26.25;;;10.10;99.90;;;;;;5144584;28;20361;-73
2023/04/28 05:31:47;;;;;;;29.08;26.48;;;10.40;99.90;;;;;;5144212;28;20023;-72
2023/04/28 05:34:18;;;;;;;30.23;28.08;;;10.30;99.90;;;;;;5143954;28;20050;-73
2023/04/28 05:36:49;;;;;;;31.52;29.33;;;10.30;99.90;;;;;;5144304;28;20126;-71
2023/04/28 05:39:20;;;;;;;33.03;30.70;;;10.50;99.90;;;;;;5143753;28;20569;-72
2023/04/28 05:41:50;;;;;;;32.60;30.20;;;10.70;99.90;;;;;;5144838;28;20035;-72
2023/04/28 05:44:21;;;;;;;31.98;29.73;;;10.70;99.90;;;;;;5143891;28;20083;-73
2023/04/28 05:46:52;;;;;;;33.50;30.90;;;11.00;99.90;;;;;;5144495;28;20375;-73
2023/04/28 05:49:23;;;;;;;33.78;31.30;;;11.20;99.90;;;;;;5141881;28;20035;-73
2023/04/28 05:51:54;;;;;;;34.63;31.98;;;11.30;99.90;;;;;;5141941;28;20023;-73
2023/04/28 05:54:24;;;;;;;33.40;30.80;;;11.30;99.90;;;;;;5141569;28;20037;-73
2023/04/28 05:56:56;;;;;;;30.45;28.15;;;11.40;99.90;;;;;;5142405;28;20018;-73
2023/04/28 05:59:29;;;;;;;31.73;29.58;;;11.30;99.90;;;;;;5141721;28;20019;-74
2023/04/28 06:02:00;;;;;;;31.08;28.60;;;11.50;99.90;;;;;;5142167;28;20030;-73
2023/04/28 06:04:31;;;;;;;33.70;31.45;;;11.60;99.90;;;;;;5142468;28;20026;-73
2023/04/28 06:07:02;;;;;;;34.30;31.50;;;11.70;99.90;;;;;;5143081;28;20015;-73
2023/04/28 06:09:32;;;;;;;32.97;30.75;;;11.50;99.90;;;;;;5146347;28;20038;-73
2023/04/28 06:12:04;;;;;;;36.38;33.78;;;11.80;99.90;;;;;;5146115;28;20035;-72
2023/04/28 06:14:36;;;;;;;34.33;31.67;;;12.00;99.90;;;;;;5145780;28;20077;-72
2023/04/28 06:17:08;;;;;;;35.08;32.38;;;11.60;99.90;;;;;;5146118;28;20019;-71
2023/04/28 06:19:39;;;;;;;37.15;34.72;;;11.90;99.90;;;;;;5146285;28;20033;-72
2023/04/28 06:22:11;;;;;;;38.30;35.65;;;12.00;99.90;;;;;;5146069;28;20417;-72
2023/04/28 06:24:42;;;;;;;39.08;36.28;;;12.30;99.90;;;;;;5146112;28;20027;-72
2023/04/28 06:27:13;;;;;;;42.10;39.28;;;12.20;99.90;;;;;;5145931;28;20446;-71
2023/04/28 06:29:44;;;;;;;43.38;40.60;;;12.20;99.90;;;;;;5145869;28;20114;-72
2023/04/28 06:32:15;;;;;;;47.33;44.38;;;12.40;99.90;;;;;;5145429;28;20041;-72
2023/04/28 06:34:46;;;;;;;44.03;41.10;;;12.40;99.90;;;;;;5145970;28;20562;-72
2023/04/28 06:37:17;;;;;;;45.15;42.25;;;12.40;99.90;;;;;;5145826;28;20839;-71
2023/04/28 06:39:48;;;;;;;48.53;45.45;;;12.40;99.90;;;;;;5145552;28;20055;-71
2023/04/28 06:42:19;;;;;;;44.33;41.40;;;12.70;99.90;;;;;;5145434;28;20041;-71
2023/04/28 06:44:50;;;;;;;43.60;40.92;;;12.50;99.90;;;;;;5145226;28;20034;-73
2023/04/28 06:47:21;;;;;;;45.58;42.55;;;12.60;99.90;;;;;;5145169;28;20483;-73
2023/04/28 06:49:52;;;;;;;48.08;44.92;;;12.60;99.90;;;;;;5145377;28;20033;-71
2023/04/28 06:52:23;;;;;;;46.40;43.60;;;12.60;99.90;;;;;;5145673;28;20117;-72
2023/04/28 06:54:55;;;;;;;48.15;44.95;;;12.90;99.90;;;;;;5145077;28;20109;-70
2023/04/28 06:57:25;;;;;;;42.05;39.30;;;13.10;99.90;;;;;;5144891;28;20097;-72
2023/04/28 06:59:56;;;;;;;46.05;43.17;;;12.60;99.90;;;;;;5144889;28;20110;-70
2023/04/28 07:02:27;;;;;;;44.80;41.95;;;12.60;99.90;;;;;;5145046;28;20039;-72
2023/04/28 07:04:59;;;;;;;47.83;44.50;;;12.70;99.90;;;;;;5145505;28;20340;-72
2023/04/28 07:07:30;;;;;;;48.70;45.67;;;12.80;99.90;;;;;;5145192;28;20102;-70
2023/04/28 07:10:01;;;;;;;47.83;44.83;;;12.70;99.90;;;;;;5144900;28;20030;-71
2023/04/28 07:12:32;;;;;;;43.22;40.58;;;12.80;99.90;;;;;;5144533;28;20471;-69
2023/04/28 07:15:03;;;;;;;46.10;43.25;;;12.90;99.90;;;;;;5144217;28;20483;-72
2023/04/28 07:17:34;;;;;;;48.00;44.85;;;13.00;99.90;;;;;;5145262;28;20033;-69
2023/04/28 07:20:06;;;;;;;45.67;42.92;;;12.90;99.90;;;;;;5144071;28;20063;-72
2023/04/28 07:22:37;;;;;;;46.47;43.70;;;12.90;99.90;;;;;;5145870;28;20118;-71
2023/04/28 07:25:08;;;;;;;45.35;42.47;;;12.90;99.90;;;;;;5144358;28;20183;-72
2023/04/28 07:27:39;;;;;;;44.95;42.20;;;12.90;99.90;;;;;;5144884;28;20113;-71
2023/04/28 07:30:10;;;;;;;41.72;38.88;;;13.10;99.90;;;;;;5144523;28;20062;-71
2023/04/28 07:32:42;;;;;;;42.88;40.00;;;13.30;99.90;;;;;;5144500;28;20035;-69
2023/04/28 07:35:14;;;;;;;40.83;38.45;;;13.30;99.90;;;;;;5144191;28;20391;-72
2023/04/28 07:37:45;;;;;;;43.05;40.25;;;13.20;99.90;;;;;;5144474;28;20058;-71
2023/04/28 07:40:16;;;;;;;42.72;40.03;;;13.30;99.90;;;;;;5144398;28;20142;-72
2023/04/28 07:42:47;;;;;;;38.22;35.92;;;13.60;99.90;;;;;;5144326;28;20035;-70
2023/04/28 07:45:18;;;;;;;43.00;40.28;;;13.60;99.90;;;;;;5144449;28;20030;-71
2023/04/28 07:47:49;;;;;;;41.17;38.70;;;13.30;99.90;;;;;;5144602;28;20038;-70
2023/04/28 07:50:20;;;;;;;40.90;38.17;;;13.40;99.90;;;;;;5143774;28;20034;-69
2023/04/28 07:52:51;;;;;;;41.72;39.00;;;13.50;99.90;;;;;;5144393;28;20537;-72
2023/04/28 07:55:22;;;;;;;37.28;34.90;;;13.70;99.90;;;;;;5144137;28;20035;-71
2023/04/28 07:57:54;;;;;;;43.85;41.00;;;13.50;99.90;;;;;;5144432;28;20035;-71
2023/04/28 08:00:25;;;;;;;37.63;35.13;;;13.20;99.90;;;;;;5144405;28;20031;-71
2023/04/28 08:02:56;;;;;;;37.10;34.67;;;13.60;99.90;;;;;;5144227;28;20105;-72
2023/04/28 08:05:27;;;;;;;35.50;32.90;;;13.50;99.90;;;;;;5144019;28;20053;-72
2023/04/28 08:07:58;;;;;;;36.33;34.03;;;13.50;99.90;;;;;;5144283;28;20454;-71
2023/04/28 08:10:29;;;;;;;30.30;28.17;;;13.90;99.90;;;;;;5143940;28;20093;-79
2023/04/28 08:13:00;;;;;;;32.25;30.05;;;14.00;99.90;;;;;;5143899;28;20039;-72
2023/04/28 08:15:31;;;;;;;34.25;31.33;;;14.00;99.90;;;;;;5143919;28;20033;-76
2023/04/28 08:18:02;;;;;;;32.47;30.45;;;13.90;99.90;;;;;;5140630;28;20029;-75
2023/04/28 08:20:33;;;;;;;30.90;28.80;;;13.70;99.90;;;;;;5137530;28;20038;-75
2023/04/28 08:23:04;;;;;;;33.13;30.92;;;13.90;99.90;;;;;;5141785;28;20018;-74
2023/04/28 08:25:35;;;;;;;35.20;32.80;;;14.20;99.90;;;;;;5142198;28;20031;-74
2023/04/28 08:28:07;;;;;;;33.53;31.60;;;13.60;99.90;;;;;;5139543;28;20375;-70
2023/04/28 08:30:38;;;;;;;31.42;29.17;;;13.90;99.90;;;;;;5141309;28;20049;-74
2023/04/28 08:33:09;;;;;;;34.28;31.88;;;14.10;99.90;;;;;;5142226;28;20105;-71
2023/04/28 08:35:40;;;;;;;35.17;32.67;;;14.00;99.90;;;;;;5141832;28;20546;-74
2023/04/28 08:38:13;;;;;;;33.22;31.20;;;13.80;99.90;;;;;;5141978;28;20070;-72
2023/04/28 08:40:44;;;;;;;34.97;32.63;;;13.90;99.90;;;;;;5141273;28;20050;-75
2023/04/28 08:43:15;;;;;;;33.22;31.08;;;13.80;99.90;;;;;;5141708;28;20030;-74
2023/04/28 08:45:46;;;;;;;32.45;30.27;;;14.10;99.90;;;;;;5141167;28;20037;-75
2023/04/28 08:48:21;;;;;;;32.83;30.70;;;14.20;99.90;;;;;;5141686;28;20035;-75
2023/04/28 08:50:53;;;;;;;30.40;28.48;;;14.40;99.90;;;;;;5141250;28;20076;-75
2023/04/28 08:53:25;;;;;;;30.77;28.63;;;14.60;99.90;;;;;;5142016;28;20093;-74
2023/04/28 08:55:57;;;;;;;29.90;27.77;;;14.50;99.90;;;;;;5140900;28;20078;-75
2023/04/28 08:58:28;;;;;;;29.08;27.27;;;14.50;99.90;;;;;;5140982;28;20454;-75
2023/04/28 09:01:01;;;;;;;32.65;30.42;;;14.50;99.90;;;;;;5140378;28;20154;-71
2023/04/28 09:03:32;;;;;;;28.30;26.58;;;14.70;99.90;;;;;;5141564;28;20110;-72
2023/04/28 09:06:03;;;;;;;29.17;27.38;;;14.90;99.90;;;;;;5140474;28;20081;-74
2023/04/28 09:08:34;;;;;;;29.58;27.80;;;14.50;99.90;;;;;;5141194;28;20035;-73
2023/04/28 09:11:09;;;;;;;29.85;28.00;;;14.50;99.90;;;;;;5141145;28;20097;-81
2023/04/28 09:13:41;;;;;;;32.47;30.48;;;14.70;99.90;;;;;;5140761;28;20035;-75
2023/04/28 09:16:11;;;;;;;26.58;24.60;;;15.00;99.90;;;;;;5141074;28;20045;-74
2023/04/28 09:18:59;;;;;;;29.83;27.75;;;15.00;99.90;;;;;;5140664;28;20050;-71
2023/04/28 09:21:50;;;;;;;29.08;27.23;;;14.80;99.90;;;;;;5141217;28;20027;-72
2023/04/28 09:24:33;;;;;;;31.02;29.13;;;14.80;99.90;;;;;;5141007;28;20121;-72
2023/04/28 09:27:10;;;;;;;31.35;29.25;;;14.80;99.90;;;;;;5140990;28;20098;-72
2023/04/28 09:29:52;;;;;;;28.33;26.67;;;15.10;99.90;;;;;;5140479;28;20036;-73
2023/04/28 09:32:26;;;;;;;29.85;28.13;;;15.10;99.90;;;;;;5141329;28;20030;-73
2023/04/28 09:34:57;;;;;;;27.63;25.83;;;15.00;99.90;;;;;;5141026;28;20118;-73
2023/04/28 09:37:31;;;;;;;27.17;25.42;;;14.70;97.70;;;;;;5141170;28;20065;-72
2023/04/28 09:40:10;;;;;;;28.67;27.05;;;15.30;99.90;;;;;;5140222;28;20054;-72
2023/04/28 09:42:43;;;;;;;28.90;27.17;;;15.10;99.90;;;;;;5138578;28;20043;-73
2023/04/28 09:45:15;;;;;;;25.92;24.17;;;15.70;99.90;;;;;;5140962;28;20045;-72
2023/04/28 09:47:47;;;;;;;25.50;24.00;;;15.50;99.90;;;;;;5140404;28;20031;-72
2023/04/28 09:50:17;;;;;;;25.75;23.88;;;15.10;99.90;;;;;;5140962;28;20030;-72
2023/04/28 09:52:58;;;;;;;26.70;24.75;;;15.10;99.90;;;;;;5140937;28;20019;-73
2023/04/28 09:55:30;;;;;;;28.63;26.83;;;14.80;96.50;;;;;;5140756;28;20035;-73
2023/04/28 09:58:05;;;;;;;27.42;25.63;;;15.30;99.90;;;;;;5140070;28;21115;-74
2023/04/28 10:00:39;;;;;;;27.23;25.45;;;15.50;99.90;;;;;;5138532;28;20034;-73
2023/04/28 10:03:14;;;;;;;25.75;24.15;;;15.70;99.90;;;;;;5140439;28;20018;-73
2023/04/28 10:05:46;;;;;;;28.02;26.33;;;15.30;98.50;;;;;;5140495;28;20113;-71
2023/04/28 10:08:18;;;;;;;29.73;27.85;;;15.10;99.90;;;;;;5140863;28;20550;-73
2023/04/28 10:10:53;;;;;;;30.02;28.23;;;15.50;99.90;;;;;;5140814;28;20041;-73
2023/04/28 10:13:24;;;;;;;28.70;26.90;;;15.60;99.90;;;;;;5141389;28;20023;-72
2023/04/28 10:15:56;;;;;;;28.77;27.15;;;15.70;99.90;;;;;;5140170;28;20042;-73
2023/04/28 10:18:29;;;;;;;23.20;21.70;;;15.50;95.30;;;;;;5140769;28;20400;-73
2023/04/28 10:21:02;;;;;;;22.67;21.33;;;15.80;99.50;;;;;;5140204;28;20035;-74
2023/04/28 10:23:48;;;;;;;24.05;22.38;;;15.70;97.00;;;;;;5140893;28;20538;-73
2023/04/28 10:26:20;;;;;;;24.35;22.75;;;15.60;97.80;;;;;;5139894;28;20029;-74
2023/04/28 10:28:51;;;;;;;25.25;23.75;;;15.60;97.60;;;;;;5140136;28;20042;-73
2023/04/28 10:31:23;;;;;;;24.55;23.15;;;15.50;95.30;;;;;;5140774;28;20049;-71
2023/04/28 10:33:54;;;;;;;24.77;23.27;;;15.50;93.40;;;;;;5139641;28;20031;-72
2023/04/28 10:36:54;;;;;;;22.95;21.55;;;15.40;95.70;;;;;;5140363;28;20035;-73
2023/04/28 10:39:25;;;;;;;26.08;24.35;;;15.20;93.90;;;;;;5139950;28;20054;-73
2023/04/28 10:41:56;;;;;;;24.52;23.08;;;15.40;96.60;;;;;;5140113;28;20041;-73
2023/04/28 10:44:27;;;;;;;22.77;21.38;;;15.90;97.60;;;;;;5139895;28;20018;-73
2023/04/28 10:47:08;;;;;;;25.48;23.90;;;15.80;93.30;;;;;;5140281;28;20026;-73
2023/04/28 10:49:56;;;;;;;22.92;21.52;;;15.70;94.60;;;;;;5139200;28;20487;-73
2023/04/28 10:52:39;;;;;;;22.15;20.88;;;16.00;99.10;;;;;;5140856;28;20550;-73
2023/04/28 10:55:35;;;;;;;23.50;21.90;;;15.70;96.70;;;;;;5142923;28;20038;-72
2023/04/28 10:58:15;;;;;;;22.60;21.20;;;15.70;93.80;;;;;;5143165;28;20459;-73
2023/04/28 11:00:46;;;;;;;23.52;21.77;;;15.30;90.50;;;;;;5144492;28;20495;-74
2023/04/28 11:03:49;;;;;;;24.23;22.67;;;15.50;90.50;;;;;;5144567;28;20049;-77
2023/04/28 11:06:29;;;;;;;22.17;20.50;;;15.80;96.40;;;;;;5143727;28;20037;-72
2023/04/28 11:09:18;;;;;;;23.17;21.73;;;16.20;98.00;;;;;;5144396;28;20031;-72
2023/04/28 11:12:05;;;;;;;24.73;22.85;;;15.60;93.00;;;;;;5142981;28;20093;-72
2023/04/28 11:14:41;;;;;;;25.27;23.77;;;16.00;93.30;;;;;;5143565;28;20371;-73
2023/04/28 11:17:12;;;;;;;27.42;25.42;;;15.90;93.00;;;;;;5144101;28;20031;-72
2023/04/28 11:19:45;;;;;;;26.23;24.40;;;15.70;93.50;;;;;;5143329;28;20023;-72
2023/04/28 11:22:22;;;;;;;26.13;24.52;;;15.90;96.40;;;;;;5143796;28;20027;-72
2023/04/28 11:24:58;;;;;;;26.10;24.48;;;16.00;95.20;;;;;;5143316;28;20027;-72
2023/04/28 11:27:31;;;;;;;28.02;26.38;;;15.60;93.30;;;;;;5143799;28;20085;-72
2023/04/28 11:30:04;;;;;;;27.38;25.60;;;15.30;92.00;;;;;;5143399;28;20131;-72
2023/04/28 11:32:41;;;;;;;29.27;27.25;;;15.50;91.10;;;;;;5143062;28;20085;-72
2023/04/28 11:35:12;;;;;;;27.15;25.45;;;15.90;95.70;;;;;;5141775;28;20466;-73
2023/04/28 11:37:43;;;;;;;30.17;28.27;;;16.20;93.50;;;;;;5142884;28;20030;-73
2023/04/28 11:40:15;;;;;;;29.40;27.40;;;15.90;91.80;;;;;;5142791;28;20051;-72
2023/04/28 11:42:47;;;;;;;27.92;26.33;;;15.80;90.10;;;;;;5143092;28;20110;-72
2023/04/28 11:45:18;;;;;;;30.63;28.60;;;16.10;94.30;;;;;;5143454;28;20506;-72
2023/04/28 11:47:49;;;;;;;30.02;28.20;;;16.20;93.20;;;;;;5141824;28;20034;-72
2023/04/28 11:50:36;;;;;;;26.30;24.52;;;15.90;89.90;;;;;;5142923;28;20518;-72
2023/04/28 11:53:07;;;;;;;26.98;25.30;;;15.70;89.40;;;;;;5142714;28;20092;-72
2023/04/28 11:55:38;;;;;;;25.95;24.45;;;15.80;88.80;;;;;;5142925;28;20038;-73
2023/04/28 11:58:24;;;;;;;22.52;21.17;;;15.70;86.90;;;;;;5142886;28;20069;-72
2023/04/28 12:01:11;;;;;;;25.17;23.15;;;15.80;91.40;;;;;;5142887;28;20121;-72
2023/04/28 12:06:23;;;;;;;25.95;24.15;;;16.60;94.10;;;;;;5503867;23;20071;-73
2023/04/28 12:08:54;;;;;;;27.98;26.10;;;16.70;91.50;;;;;;5126226;29;20050;-72
2023/04/28 12:11:25;;;;;;;27.75;25.98;;;16.80;93.30;;;;;;5125742;29;20106;-71
2023/04/28 12:14:06;;;;;;;30.40;28.40;;;16.60;92.40;;;;;;5126538;29;20126;-72
2023/04/28 12:16:42;;;;;;;27.23;25.65;;;16.80;92.10;;;;;;5126754;29;20039;-72
2023/04/28 12:19:14;;;;;;;26.95;25.15;;;16.80;92.50;;;;;;5126879;29;20554;-72
2023/04/28 12:21:59;;;;;;;26.17;24.45;;;16.80;89.30;;;;;;5126327;29;20027;-73
2023/04/28 12:24:31;;;;;;;23.60;22.05;;;16.90;91.30;;;;;;5125429;29;20030;-72
2023/04/28 12:27:23;;;;;;;25.25;23.65;;;16.60;87.30;;;;;;5126357;28;20034;-73
2023/04/28 12:29:55;;;;;;;24.95;23.23;;;16.50;89.10;;;;;;5126352;28;20428;-72
2023/04/28 12:32:40;;;;;;;26.00;24.35;;;16.60;87.20;;;;;;5125918;28;20054;-72
2023/04/28 12:35:11;;;;;;;25.63;23.77;;;16.50;89.00;;;;;;5126207;28;20050;-72
2023/04/28 12:37:42;;;;;;;23.52;22.02;;;16.70;91.80;;;;;;5120196;28;20099;-72
2023/04/28 12:40:13;;;;;;;26.55;24.63;;;16.70;90.00;;;;;;5125196;29;20069;-73
2023/04/28 12:42:44;;;;;;;24.23;22.73;;;16.60;91.60;;;;;;5126159;29;20019;-72
2023/04/28 12:45:15;;;;;;;24.23;22.67;;;16.30;89.60;;;;;;5125973;29;20030;-72
2023/04/28 12:47:46;;;;;;;25.35;23.38;;;16.30;90.20;;;;;;5126071;29;20523;-72
2023/04/28 12:50:17;;;;;;;23.52;21.92;;;16.70;90.40;;;;;;5125549;29;20023;-72
2023/04/28 12:52:48;;;;;;;25.95;24.25;;;16.70;90.90;;;;;;5125618;29;20031;-72
2023/04/28 12:55:19;;;;;;;24.27;22.75;;;16.70;87.80;;;;;;5125909;28;20372;-72
2023/04/28 12:57:50;;;;;;;24.23;22.70;;;16.50;89.10;;;;;;5125710;29;20028;-72
2023/04/28 13:00:23;;;;;;;24.70;22.90;;;17.20;91.80;;;;;;5123299;28;20472;-72